Timeline UpdatesTrip UpdatesNews PostsPvt PostsTravel TipsAdmin PostsConv PostsFollowed PostsChat RequestsBlog PostsPNR Posts

Disclaimer
Search
 
 
Tue Sep 30, 2014 17:20:10 ISTHomeTrainsΣChainsAtlasPNRForumGalleryNewsFAQTripsMembersLoginFeedback
No Recent News for this Train
Other Trains in the News **new
Latest...
⇐ Return Journey: Train# 59208

59207/Bhavnagar Okha Passenger

Time-Table HAS CHANGED.
Sep 02 (12:26AM)
Change Departure Station:
Change Arrival Station:
Post a Train Travel TipPost a Train Travel Tip **new
Post a Comment/Question/Picture/VideoPost a Comment/Question/Picture/Video
Pantry/Catering
✕ NO Pantry Car
✕ NO Catering
RSA - Rake Sharing
59267/59268 Bhavnagar-Palitana Passenger; RSA 09201/09202; BVC-SUNR(Triweekly) PASS.
Rake/Coach Composition
ENG.SLR.GEN.GEN.S1.S2.GEN.GEN.SLR(RMS).; By Darshan Chauhan Entry# 684153
Loco
LOCO RTM WDM 3A.
News    PNR    Forum    Time-Table    Availability    Fare Chart    Map    Arr/Dep History    Trips    Gallery    ΣChains    X/O    Timeline    
Travel Time: 7h 39m    29 halts    Distance: 256 km    Avg Speed: 33 km/hr
Type: Passenger
Zone: WR/Western
Departs @ 21:25 (Avg 1m late)
Platform# 1
SMTWTFS
Bhavnagar Terminus/BVC 
Arrives @ 05:04 +1 night (Avg 7m late)
Platform# ???
SMTWTFS
Sindhawadar/SDD 

29 halts. 36 intermediate Stations between Bhavnagar Terminus and Sindhawadar

Show ALL intermediate Stations  Show Old Time-Table

#CodeStation NameX/OArrivesAvgDepartsAvgHaltPFDay#KmSpeedElevZoneAddress
1BVCBhavnagar Terminus (2)»  -21:25+1110.02711mWRBhavnagar, Gujarat
2BVPBhavnagar Para  21:30 21:31+321:31 21:32+61m--12.74313mWRBhavnagar, Gujarat
3VTJVartej  21:41 21:42+721:42 21:43+71m--19.94524mWRBhavnagar, Gujarat
4KDMRKodiyar Mandir  21:49 21:50+821:50 21:51+81m1115.24592mWRSH 21, Gujarat
5SOJNSihor Gujarat  21:57 21:58+1021:58 21:59+101m--120.45042mWRShihor, Gujarat
6SGDSongadh (1)  22:07 22:08+1022:08 22:09+101m1127.95240mWRBhavnagar, Gujarat
7BJUDBajud  22:15 22:16-22:16 22:17-1m--134.05137mWRState Highway 31, Gujarat
8SOASanosraX  22:25 22:22+822:26 22:23+111m1138.34436mWRState Highway 25, Gujarat
9DLJDhola Junction  22:36 22:38+922:37 22:39+101m1149.36137mWRDhola, Gujarat
10UJUjalvav  22:47 22:49+1122:48 22:50+111m--159.55764mWRState Highway 31, Gujarat
11ALMRAlampur  22:56 22:57+1122:57 22:58+111m--166.25659mWRState Highway 31, Gujarat
12NGANingala Junction  23:04 23:06+1123:05 23:07+111m--173.76457mWRState Highway 117, Gujarat
13LTDLathidad  23:13 23:14+1123:14 23:15+131m--181.24768mWRTajpar Rd, Gujarat
14BTDBotad Junction (5)  23:28 23:29+1123:30 23:31+142m1192.26296mWRBotad, Gujarat
15KDIKundli  23:40 23:42+1823:41 23:43+181m--1103.76586mWRState Highway 38, Gujarat
16RURRanpur  23:51 23:53+1823:52 23:54+181m--1114.46561mWRRanpur, Gujarat
17CDAChuda  00:07 00:09+1800:08 00:10+191m--2130.76063mWRState Highway 38, Gujarat
18LMLimbdi (1)  00:18 00:20+1800:19 00:21+141m12140.86851mWRLimbdi, Gujarat
19WCWadhwan City  00:53 00:39+600:54 00:40+61m--2161.14367mWRSurendranagar, Gujarat
20JVNJorawarnagar Junction (1)  01:00 00:45-01:01 00:46-1m12164.63369mWRSurendra Nagar, Gujarat
21SRGTSurendranagar Gate (1)  01:07 00:51-01:08 00:52-1m12167.4471mWRSurendranagar, Gujarat
22SUNRSurendranagar Junction (4)X  01:25+401:40+2415m12169.63472mWRSurendra Nagar, Gujarat
23DXRDigsar  02:03 02:04+2902:04 02:05+371m--2183.348100mWRState Highway 17, Gujarat
24MOLMuli Road  02:14 02:15+3602:15 02:16+391m12191.350108mWRSurendranagar, Gujarat
25RARampardaX  02:26 02:27+3802:27 02:28+421m--2200.520141mWRSurendranagar, Gujarat
26VDVagdiya  02:46 02:47+3102:47 02:53+411 6m--2206.978149mWRState Highway 113, Gujarat
27THANThan Junction (3)  02:59 03:01+2503:01 03:03+312m12217.361138mWRThangadh, Gujarat
28DLDaladi  03:16 03:17+5103:17 03:18+521m--2231.444115mWRDaladi, Gujarat
29WKRWankaner Junction (4)XO  03:35+3104:43+468m--2243.93787mWRWankaner, Gujarat
30AXAAmarsar  04:54 04:55+604:55 04:56+61m--2251.239113mWRRajkot, Gujarat
31SDDSindhawadar•  05:03 05:04+705:04 05:05+91m--2256.431105mWRSindhavadar, Gujarat
32KNKTKanakotX  05:16 05:18+905:18 05:24+102 6m--2263.170133mWRState Highway 113, Gujarat
33KHCKhorana  05:33 05:34+705:34 05:35+111m--2274.932131mWRState Highway 113, Gujarat
34RJTRajkot Junction (5)XO  05:55+507:05+270m32285.650128mWRRajkot, Gujarat
35KHDIKhanderi  07:17 07:18+907:18 07:19+91m--2296.460111mWRRajkot, Gujarat
36PDHPadadhari  07:32 07:33+807:33 07:34+171m--2310.44671mWRPaddhari, Gujarat
37CXChanol  07:42 07:43+1707:43 07:44+171m--2317.34889mWRState Highway 25, Gujarat
38HMHadmatiya Junction  07:52 07:53+1707:53 07:54+171m--2324.46770mWRHadmatiya Junction Railway Station, Gujarat
39JALDJaliya DevaniX  08:00 08:01+1708:01 08:02+171m--2332.34250mWRRanuja Village Rd, Gujarat
40WTJJam Wanthali  08:12 08:13+1808:13 08:14+201m--2339.95952mWRRanuja Village Rd, Gujarat
41ALBAlia Bada  08:25 08:26+1908:26 08:27+211m--2351.64627mWRJamnagar, Gujarat
42HAPAHapa (3)X  08:40+2008:45+205m--2361.54316mWRJamnagar, Gujarat
43JAMJamnagar (2)  08:57+1709:00+183m--2370.25514mWRJamnagar, Gujarat
44LKBLLakhabawalX  09:12 09:13+2209:13 09:25+191 12m--2382.05721mWRJamnagar, Gujarat
45PPLIPipliX  09:34 09:35+1109:35 09:36+121m--2391.53930mWRJamnagar, Gujarat
46KNLSKanalus JunctionX  09:43 09:44+1209:44 09:50+141 6m--2396.64636mWRJamnagar, Gujarat
47MDPRModpur  10:03 10:04+1010:04 10:05+151m--2407.45647mWRKhambhalia-Lalpur, Gujarat
48SYQSinhan  10:14 10:15-10:15 10:16-1m--2416.75850mWRSH 6, Gujarat
49KMBLKhambhalia  10:24+1110:26+112m--2424.54949mWRKhambhalia, Gujarat
50VQDViramdad  10:34 10:35-10:35 10:36-1m--2431.96549mWRKhambhalia-Dwarka (SH 6), Gujarat
51BHTLBhatel  10:45 10:46+1510:46 10:47+151m--2442.64735mWRJamnagar, Gujarat
52BPKABhopalka  11:04 11:05+711:05 11:06+71m--2456.85046mWRJamnagar, Gujarat
53BHTABhatiya  11:16 11:18+511:18 11:20+52m--2466.87034mWRNational Highway 8E, Gujarat
54KRGAKuranga  11:29 11:30-11:30 11:31-1m--2478.46312mWRJamnagar, Gujarat
55OKDOkha Madhi  11:38 11:39+511:39 11:40+61m--2486.71085mWRNH 8E, Gujarat
56GRJAGorinja  11:49 11:50+511:50 11:51+51m--2504.7235mWRKhambhalia-Dwarka (SH 6), Gujarat
57DWKDwarka (2)X  12:00 12:01+1312:01 12:06+141 5m--2508.53814mWRDwarka, Gujarat
58VVAVarvala  12:13 12:14-12:14 12:15-1m--2513.62914mWRJamnagar, Gujarat
59BMRNBhimranaX  12:36 12:38-312:38 12:48+92 10m--2524.8356mWRBhimrana, Gujarat
60MTHPMithapur  12:52 12:53-12:53 12:54-1m--2527.7223mWRJamnagar, Gujarat
61OKHAOkha (3)  13:20-4---2537.2-5mWROkha, Gujarat
Scroll to Top
Scroll to Bottom